Grady, Arkansas
Current Conditions -  °F | °C
As of 10:53 AM on Saturday 20 Dec 2014 (Local Time) from KPBF Reporting Station
Overcast Overcast  
Wind Chill: 41°   Ceiling: 5500
Heat Index: 44°   Visibility: 10mi
Dew Point: 36°   Wind: 6mph
Humidity: 73%   Direction: 50°NE
Pressure: 30.29"   Gusts: NA
Location:  34.08°N, 91.7°W
Report Text: KPBF 201653Z AUTO 05005KT 10SM OVC055 07/02 A3029 RMK AO2 SLP257 T00670022
Loading
Personal Weather Stations






























Interactive Weather Map New forecast layout! Learn more

10-Day Weather Forecast

Advertisements
Track Severe Weather on mobile